Time;durP1;ratioP1;P1;durP2;ratioP2;P2;SDS_P1;SDS_P2;PMS_P1;PMS_P2;Temp;Humidity;BMP_temperature;BMP_pressure;BME280_temperature;BME280_humidity;BME280_pressure;Samples;Min_cycle;Max_cycle;Signal;HPM_P1;HPM_P2
2023/09/26 00:00:24;;;;;;;6.53;2.75;;;;;;;16.89;100.00;100759.44;5022134;28;20041;-72
2023/09/26 00:03:08;;;;;;;10.07;3.58;;;;;;;16.85;100.00;100764.06;5016581;28;20563;-72
2023/09/26 00:05:54;;;;;;;7.53;3.10;;;;;;;16.88;100.00;100766.19;5001151;28;20572;-72
2023/09/26 00:08:38;;;;;;;7.28;3.50;;;;;;;16.84;100.00;100763.22;5022062;28;20117;-72
2023/09/26 00:11:22;;;;;;;8.15;3.35;;;;;;;16.84;100.00;100766.03;5006857;28;20061;-72
2023/09/26 00:14:06;;;;;;;10.52;3.22;;;;;;;16.84;100.00;100756.81;5056239;28;20174;-72
2023/09/26 00:16:51;;;;;;;8.07;3.13;;;;;;;16.82;100.00;100756.28;5033948;28;20122;-72
2023/09/26 00:19:34;;;;;;;7.57;3.03;;;;;;;16.84;100.00;100751.19;5044380;28;20044;-72
2023/09/26 00:22:19;;;;;;;8.52;2.85;;;;;;;16.85;100.00;100758.44;5039820;28;20107;-72
2023/09/26 00:25:05;;;;;;;8.73;3.08;;;;;;;16.84;100.00;100759.59;5014837;28;20048;-72
2023/09/26 00:27:50;;;;;;;10.95;3.55;;;;;;;16.87;100.00;100753.31;5024432;28;20171;-72
2023/09/26 00:30:34;;;;;;;7.72;3.40;;;;;;;16.85;100.00;100758.44;5037490;28;20071;-72
2023/09/26 00:33:18;;;;;;;8.77;3.50;;;;;;;16.84;100.00;100763.22;5028109;28;20398;-72
2023/09/26 00:36:10;;;;;;;7.20;3.50;;;;;;;16.87;100.00;100767.34;5057142;28;20040;-72
2023/09/26 00:38:54;;;;;;;7.13;3.20;;;;;;;16.86;100.00;100769.34;5040737;28;20059;-72
2023/09/26 00:41:39;;;;;;;10.02;3.20;;;;;;;16.89;100.00;100753.84;5055191;28;20437;-73
2023/09/26 00:44:23;;;;;;;8.88;3.60;;;;;;;16.89;100.00;100754.66;5018244;28;20040;-72
2023/09/26 00:47:07;;;;;;;5.43;2.83;;;;;;;16.87;100.00;100751.34;5031370;28;20104;-72
2023/09/26 00:49:51;;;;;;;8.10;3.17;;;;;;;16.88;100.00;100752.16;5038051;28;20115;-72
2023/09/26 00:52:35;;;;;;;6.85;2.88;;;;;;;16.86;100.00;100746.91;5027456;28;20040;-72
2023/09/26 00:55:22;;;;;;;7.70;3.03;;;;;;;16.87;100.00;100750.53;5009698;28;20052;-72
2023/09/26 00:58:06;;;;;;;6.07;2.85;;;;;;;16.85;100.00;100747.22;5041186;28;20488;-72
2023/09/26 01:00:51;;;;;;;6.80;2.90;;;;;;;16.84;100.00;100734.34;5041634;28;20043;-72
2023/09/26 01:03:35;;;;;;;7.55;2.90;;;;;;;16.82;100.00;100742.28;5013877;28;20119;-72
2023/09/26 01:06:19;;;;;;;5.25;2.72;;;;;;;16.83;100.00;100738.34;5041700;28;20035;-72
2023/09/26 01:09:06;;;;;;;5.70;3.20;;;;;;;16.80;100.00;100745.44;5050080;28;20480;-72
2023/09/26 01:11:50;;;;;;;8.63;3.38;;;;;;;16.78;100.00;100738.50;5030381;28;20580;-72
2023/09/26 01:14:34;;;;;;;7.45;3.33;;;;;;;16.75;100.00;100740.75;5036332;28;20064;-73
2023/09/26 01:17:18;;;;;;;7.53;3.10;;;;;;;16.74;100.00;100739.13;5008154;28;20524;-72
2023/09/26 01:20:11;;;;;;;7.72;2.97;;;;;;;16.74;100.00;100736.31;5028713;28;20515;-72
2023/09/26 01:22:56;;;;;;;7.28;3.40;;;;;;;16.73;100.00;100725.41;5024133;28;20040;-72
2023/09/26 01:25:40;;;;;;;6.65;3.63;;;;;;;16.70;100.00;100729.72;5007202;28;20048;-72
2023/09/26 01:28:24;;;;;;;6.30;3.10;;;;;;;16.70;100.00;100734.50;5005481;28;20049;-72
2023/09/26 01:31:08;;;;;;;5.32;2.90;;;;;;;16.66;100.00;100734.34;5019888;28;20099;-72
2023/09/26 01:33:53;;;;;;;7.32;2.78;;;;;;;16.65;100.00;100727.06;5025407;28;20447;-72
2023/09/26 01:36:36;;;;;;;7.00;3.20;;;;;;;16.65;100.00;100729.88;5011295;28;20389;-72
2023/09/26 01:39:21;;;;;;;11.77;3.88;;;;;;;16.63;100.00;100729.41;5011385;28;20048;-72
2023/09/26 01:42:05;;;;;;;6.63;3.15;;;;;;;16.62;100.00;100722.13;5025575;28;20505;-72
2023/09/26 01:44:49;;;;;;;8.70;3.78;;;;;;;16.61;100.00;100714.06;5011649;28;20091;-72
2023/09/26 01:47:40;;;;;;;8.48;2.83;;;;;;;16.62;100.00;100716.50;5040170;28;20041;-72
2023/09/26 01:50:24;;;;;;;9.32;3.25;;;;;;;16.63;100.00;100712.56;5000130;28;20040;-72
2023/09/26 01:53:13;;;;;;;5.88;2.45;;;;;;;16.64;100.00;100714.22;4990257;28;20092;-72
2023/09/26 01:56:00;;;;;;;11.30;3.40;;;;;;;16.63;100.00;100706.13;5025527;28;20552;-72
2023/09/26 01:58:44;;;;;;;10.05;3.33;;;;;;;16.62;100.00;100716.50;5011252;28;20140;-72
2023/09/26 02:01:28;;;;;;;7.95;3.30;;;;;;;16.63;100.00;100722.94;4997584;28;20040;-72
2023/09/26 02:04:12;;;;;;;6.07;2.70;;;;;;;16.62;100.00;100716.50;4997439;28;20040;-72
2023/09/26 02:06:56;;;;;;;9.07;3.10;;;;;;;16.63;100.00;100706.13;5040132;28;20559;-72
2023/09/26 02:09:40;;;;;;;6.43;2.97;;;;;;;16.64;100.00;100696.56;5008202;28;20156;-72
2023/09/26 02:12:24;;;;;;;9.40;3.08;;;;;;;16.61;100.00;100686.84;5024545;28;20480;-72
2023/09/26 02:15:09;;;;;;;8.60;3.50;;;;;;;16.61;100.00;100689.63;5005131;28;20045;-72
2023/09/26 02:17:53;;;;;;;8.18;3.28;;;;;;;16.65;100.00;100692.59;5011146;28;20134;-72
2023/09/26 02:20:37;;;;;;;10.65;3.22;;;;;;;16.65;100.00;100692.59;5038185;28;20068;-72
2023/09/26 02:23:22;;;;;;;7.97;3.05;;;;;;;16.64;100.00;100686.16;5010714;28;20044;-72
2023/09/26 02:26:06;;;;;;;8.65;3.53;;;;;;;16.64;100.00;100690.97;5011947;28;20040;-72
2023/09/26 02:28:50;;;;;;;5.38;2.83;;;;;;;16.65;100.00;100690.59;5024729;28;20456;-72
2023/09/26 02:31:34;;;;;;;10.70;3.05;;;;;;;16.63;100.00;100689.28;5024399;28;20063;-72
2023/09/26 02:34:19;;;;;;;6.65;2.78;;;;;;;16.63;100.00;100678.91;4999906;28;20184;-72
2023/09/26 02:37:03;;;;;;;9.63;2.95;;;;;;;16.60;100.00;100684.34;5037741;28;20099;-72
2023/09/26 02:39:47;;;;;;;6.20;2.78;;;;;;;16.59;100.00;100680.72;5024161;28;20107;-72
2023/09/26 02:42:34;;;;;;;7.10;3.05;;;;;;;16.59;100.00;100668.69;5015000;28;20044;-72
2023/09/26 02:45:18;;;;;;;7.50;3.25;;;;;;;16.60;100.00;100673.13;5008588;28;20052;-72
2023/09/26 02:48:04;;;;;;;8.32;3.25;;;;;;;16.56;100.00;100680.56;4996410;28;20040;-73
2023/09/26 02:50:48;;;;;;;7.70;2.70;;;;;;;16.57;100.00;100676.59;5023352;28;20509;-72
2023/09/26 02:53:32;;;;;;;6.00;2.90;;;;;;;16.55;100.00;100674.13;5011032;28;20234;-72
2023/09/26 02:56:16;;;;;;;6.55;2.72;;;;;;;16.54;100.00;100667.69;5037623;28;20036;-72
2023/09/26 02:59:00;;;;;;;7.97;2.78;;;;;;;16.54;100.00;100664.06;5023693;28;20636;-72
2023/09/26 03:01:44;;;;;;;8.27;3.40;;;;;;;16.53;100.00;100656.81;5024062;28;20049;-72
2023/09/26 03:04:28;;;;;;;6.00;2.70;;;;;;;16.53;100.00;100660.44;5010324;28;20048;-72
2023/09/26 03:07:12;;;;;;;8.82;2.88;;;;;;;16.53;100.00;100646.44;5038753;28;20036;-72
2023/09/26 03:09:56;;;;;;;9.45;3.30;;;;;;;16.53;100.00;100642.81;5009959;28;20037;-72
2023/09/26 03:12:44;;;;;;;12.52;3.38;;;;;;;16.48;100.00;100640.97;5023484;28;20568;-72
2023/09/26 03:15:29;;;;;;;9.10;3.05;;;;;;;16.50;100.00;100643.47;5017960;28;20101;-72
2023/09/26 03:18:13;;;;;;;6.07;2.70;;;;;;;16.50;100.00;100646.28;5019329;28;20048;-72
2023/09/26 03:20:57;;;;;;;6.28;2.92;;;;;;;16.49;100.00;100639.84;5022861;28;20041;-72
2023/09/26 03:23:41;;;;;;;5.50;3.00;;;;;;;16.48;100.00;100637.34;5008939;28;20049;-72
2023/09/26 03:26:25;;;;;;;5.60;2.95;;;;;;;16.44;100.00;100630.78;5023112;28;20036;-72
2023/09/26 03:29:09;;;;;;;5.93;2.60;;;;;;;16.44;100.00;100642.00;5023517;28;20040;-72
2023/09/26 03:31:54;;;;;;;6.68;3.13;;;;;;;16.41;100.00;100653.84;5023267;28;20098;-72
2023/09/26 03:34:38;;;;;;;7.50;2.40;;;;;;;16.40;100.00;100655.00;4990192;28;20172;-72
2023/09/26 03:37:22;;;;;;;5.13;2.60;;;;;;;16.37;100.00;100645.28;5010458;28;20539;-72
2023/09/26 03:40:06;;;;;;;5.40;2.30;;;;;;;16.39;100.00;100640.16;5023131;28;20040;-72
2023/09/26 03:42:50;;;;;;;7.63;2.90;;;;;;;16.36;100.00;100631.59;5023185;28;20489;-72
2023/09/26 03:45:34;;;;;;;5.10;2.63;;;;;;;16.35;100.00;100633.56;4984603;28;20098;-72
2023/09/26 03:48:18;;;;;;;7.60;2.80;;;;;;;16.35;100.00;100629.94;5022825;28;20107;-72
2023/09/26 03:51:13;;;;;;;6.53;2.67;;;;;;;16.33;100.00;100624.69;5009136;28;20040;-72
2023/09/26 03:53:57;;;;;;;5.65;2.58;;;;;;;16.33;100.00;100623.84;5009575;28;20107;-72
2023/09/26 03:56:41;;;;;;;5.75;2.83;;;;;;;16.30;100.00;100616.94;4996419;28;20099;-72
2023/09/26 03:59:25;;;;;;;5.70;2.28;;;;;;;16.30;100.00;100608.53;4989458;28;20048;-72
2023/09/26 04:02:09;;;;;;;4.88;2.05;;;;;;;16.29;100.00;100606.84;5039652;28;20064;-72
2023/09/26 04:04:53;;;;;;;6.50;2.72;;;;;;;16.28;100.00;100603.25;4996795;28;20041;-72
2023/09/26 04:07:37;;;;;;;7.68;2.55;;;;;;;16.29;100.00;100602.06;5037302;28;20500;-73
2023/09/26 04:10:21;;;;;;;5.97;2.70;;;;;;;16.29;100.00;100604.88;5015303;28;20103;-72
2023/09/26 04:13:05;;;;;;;6.50;3.00;;;;;;;16.28;100.00;100616.44;5039214;28;20059;-72
2023/09/26 04:15:49;;;;;;;6.35;2.20;;;;;;;16.26;100.00;100602.75;5028440;28;20412;-72
2023/09/26 04:18:34;;;;;;;5.93;2.33;;;;;;;16.25;100.00;100609.50;5042992;28;20036;-72
2023/09/26 04:21:18;;;;;;;7.13;2.60;;;;;;;16.27;100.00;100592.38;5042182;28;20219;-72
2023/09/26 04:24:04;;;;;;;8.13;3.03;;;;;;;16.26;100.00;100585.94;5030691;28;20244;-72
2023/09/26 04:26:48;;;;;;;6.80;3.25;;;;;;;16.27;100.00;100589.56;5028963;28;20499;-72
2023/09/26 04:29:33;;;;;;;4.68;2.17;;;;;;;16.26;100.00;100585.09;5017822;28;20064;-72
2023/09/26 04:32:20;;;;;;;8.65;2.72;;;;;;;16.24;100.00;100577.03;5052453;28;20084;-72
2023/09/26 04:35:05;;;;;;;4.28;2.28;;;;;;;16.19;100.00;100568.81;5037162;28;20068;-72
2023/09/26 04:37:48;;;;;;;6.40;2.70;;;;;;;16.22;100.00;100573.75;5022018;28;20032;-72
2023/09/26 04:40:36;;;;;;;4.35;2.50;;;;;;;16.22;100.00;100570.13;5022025;28;20619;-72
2023/09/26 04:43:20;;;;;;;6.70;3.05;;;;;;;16.20;100.00;100561.22;5031995;28;20577;-72
2023/09/26 04:46:11;;;;;;;7.15;2.72;;;;;;;16.17;100.00;100550.66;5013113;28;20102;-72
2023/09/26 04:48:56;;;;;;;7.07;2.65;;;;;;;16.18;100.00;100550.31;5028042;28;20043;-72
2023/09/26 04:51:40;;;;;;;5.55;2.15;;;;;;;16.19;100.00;100556.78;5042214;28;20043;-72
2023/09/26 04:54:24;;;;;;;6.80;2.17;;;;;;;16.19;100.00;100539.97;5027876;28;20043;-72
2023/09/26 04:57:08;;;;;;;5.22;2.33;;;;;;;16.20;100.00;100553.63;5056839;28;20115;-72
2023/09/26 04:59:52;;;;;;;5.88;2.38;;;;;;;16.19;100.00;100556.78;5041846;28;20448;-72
2023/09/26 05:02:36;;;;;;;4.65;2.17;;;;;;;16.17;100.00;100543.09;5018071;28;20067;-72
2023/09/26 05:05:21;;;;;;;6.88;2.15;;;;;;;16.16;100.00;100555.47;5007656;28;20138;-73
2023/09/26 05:08:05;;;;;;;4.43;1.85;;;;;;;16.16;100.00;100555.47;5007181;28;20111;-72
2023/09/26 05:10:50;;;;;;;4.50;1.90;;;;;;;16.17;100.00;100554.28;5030652;28;20043;-72
2023/09/26 05:13:33;;;;;;;4.93;1.92;;;;;;;16.17;100.00;100547.88;5049121;28;20408;-72
2023/09/26 05:16:18;;;;;;;3.70;2.25;;;;;;;16.13;100.00;100547.72;5000315;28;20048;-72
2023/09/26 05:19:02;;;;;;;5.53;1.85;;;;;;;16.15;100.00;100547.38;5027898;28;20563;-72
2023/09/26 05:21:46;;;;;;;7.28;2.17;;;;;;;16.12;100.00;100548.84;5041429;28;20075;-72
2023/09/26 05:24:30;;;;;;;6.03;2.25;;;;;;;16.12;100.00;100553.63;5015508;28;20044;-72
2023/09/26 05:27:14;;;;;;;3.72;2.10;;;;;;;16.11;100.00;100544.41;5056467;28;20090;-72
2023/09/26 05:29:58;;;;;;;4.93;2.15;;;;;;;16.11;100.00;100541.63;5007915;28;20044;-72
2023/09/26 05:32:42;;;;;;;4.63;2.13;;;;;;;16.12;100.00;100550.84;5016300;28;20044;-72
2023/09/26 05:35:26;;;;;;;5.40;1.73;;;;;;;16.11;100.00;100549.19;5027127;28;20552;-72
2023/09/26 05:38:10;;;;;;;4.85;2.38;;;;;;;16.07;100.00;100547.06;5040964;28;20555;-72
2023/09/26 05:40:54;;;;;;;4.65;2.03;;;;;;;16.06;100.00;100545.41;5040766;28;20064;-72
2023/09/26 05:43:38;;;;;;;6.97;2.20;;;;;;;16.01;100.00;100553.97;5026923;28;20135;-72
2023/09/26 05:46:23;;;;;;;3.08;1.98;;;;;;;15.99;100.00;100552.63;5041203;28;20044;-72
2023/09/26 05:49:07;;;;;;;3.15;1.85;;;;;;;16.00;100.00;100571.94;5041299;28;20044;-72
2023/09/26 05:51:51;;;;;;;3.47;2.00;;;;;;;16.00;100.00;100569.13;5027796;28;20400;-72
2023/09/26 05:54:36;;;;;;;3.85;1.80;;;;;;;15.98;100.00;100571.44;5027564;28;20056;-72
2023/09/26 05:57:20;;;;;;;2.63;1.42;;;;;;;15.98;100.00;100581.81;5027238;28;20098;-72
2023/09/26 06:00:10;;;;;;;4.15;1.70;;;;;;;15.92;100.00;100574.72;5029328;28;20051;-72
2023/09/26 06:02:55;;;;;;;5.82;1.80;;;;;;;15.91;100.00;100573.91;5029780;28;20044;-72
2023/09/26 06:05:39;;;;;;;5.20;1.98;;;;;;;15.90;100.00;100577.84;5041175;28;20056;-72
2023/09/26 06:08:24;;;;;;;4.10;1.83;;;;;;;15.88;100.00;100590.53;5027130;28;20044;-72
2023/09/26 06:11:09;;;;;;;5.38;1.88;;;;;;;15.85;100.00;100590.06;5026857;28;20111;-72
2023/09/26 06:13:53;;;;;;;5.03;2.00;;;;;;;15.83;100.00;100583.13;5044462;28;20103;-76
2023/09/26 06:16:37;;;;;;;4.28;1.98;;;;;;;15.84;100.00;100584.75;5021322;28;20405;-72
2023/09/26 06:19:21;;;;;;;4.25;2.10;;;;;;;15.82;100.00;100581.47;5057261;28;20147;-72
2023/09/26 06:22:05;;;;;;;3.70;1.75;;;;;;;15.86;100.00;100591.69;5030177;28;20503;-72
2023/09/26 06:24:49;;;;;;;3.30;1.83;;;;;;;15.82;100.00;100587.91;5044110;28;20036;-72
2023/09/26 06:27:37;;;;;;;3.50;2.00;;;;;;;15.82;100.00;100587.91;5030141;28;20124;-72
2023/09/26 06:30:21;;;;;;;5.57;1.85;;;;;;;15.81;100.00;100594.66;5044723;28;21393;-72
2023/09/26 06:33:05;;;;;;;5.13;1.70;;;;;;;15.78;100.00;100592.50;5044591;28;20103;-73
2023/09/26 06:35:49;;;;;;;3.88;1.90;;;;;;;15.80;100.00;100581.81;5033420;28;20123;-73
2023/09/26 06:38:33;;;;;;;7.15;2.30;;;;;;;15.80;100.00;100598.59;5042226;28;20044;-73
2023/09/26 06:41:17;;;;;;;3.45;2.00;;;;;;;15.79;100.00;100599.75;5058361;28;20056;-73
2023/09/26 06:44:01;;;;;;;3.80;2.10;;;;;;;15.80;100.00;100598.59;5024482;28;20103;-73
2023/09/26 06:46:45;;;;;;;4.43;1.77;;;;;;;15.82;100.00;100609.47;5027241;28;20035;-73
2023/09/26 06:49:29;;;;;;;3.97;1.73;;;;;;;15.87;100.00;100612.13;5043795;28;20146;-73
2023/09/26 06:52:14;;;;;;;3.70;1.80;;;;;;;15.88;100.00;100622.19;5058164;28;20047;-73
2023/09/26 06:54:58;;;;;;;3.25;1.73;;;;;;;15.90;100.00;100613.44;5010292;28;20061;-73
2023/09/26 06:57:42;;;;;;;3.35;2.03;;;;;;;15.91;100.00;100612.28;5019808;28;20036;-73
2023/09/26 07:00:26;;;;;;;3.97;2.10;;;;;;;15.93;100.00;100621.19;5043685;28;20072;-73
2023/09/26 07:03:10;;;;;;;5.50;1.98;;;;;;;15.97;100.00;100605.38;5046382;28;20044;-73
2023/09/26 07:05:55;;;;;;;3.80;2.28;;;;;;;16.00;100.00;100610.34;5041444;28;20112;-73
2023/09/26 07:08:40;;;;;;;4.50;1.88;;;;;;;15.99;100.00;100617.91;5043518;28;20043;-73
2023/09/26 07:11:25;;;;;;;4.00;1.90;;;;;;;16.02;100.00;100619.25;5022408;28;20056;-73
2023/09/26 07:14:08;;;;;;;3.00;1.80;;;;;;;16.02;100.00;100614.44;5058612;28;20043;-73
2023/09/26 07:16:52;;;;;;;5.28;2.20;;;;;;;16.01;100.00;100629.59;5057749;28;20039;-73
2023/09/26 07:19:36;;;;;;;3.28;2.00;;;;;;;16.04;100.00;100620.53;5029463;28;20071;-73
2023/09/26 07:22:21;;;;;;;2.63;1.83;;;;;;;16.06;100.00;100625.81;5039560;28;20048;-73
2023/09/26 07:25:05;;;;;;;3.65;1.77;;;;;;;16.09;100.00;100625.16;5048945;28;20183;-73
2023/09/26 07:27:49;;;;;;;10.45;2.55;;;;;;;16.13;100.00;100631.78;5046166;28;20324;-73
2023/09/26 07:30:34;;;;;;;3.00;1.95;;;;;;;16.22;100.00;100637.38;5029236;28;20381;-73
2023/09/26 07:33:18;;;;;;;4.75;2.00;;;;;;;16.30;100.00;100642.97;5037984;28;20044;-73
2023/09/26 07:36:03;;;;;;;5.25;1.88;;;;;;;16.40;100.00;100646.59;5036033;28;20080;-73
2023/09/26 07:38:47;;;;;;;3.42;1.80;;;;;;;16.50;100.00;100643.47;5041580;28;20381;-73
2023/09/26 07:41:31;;;;;;;3.95;1.73;;;;;;;16.64;100.00;100646.09;5037836;28;20349;-73
2023/09/26 07:44:15;;;;;;;3.83;1.92;;;;;;;16.79;100.00;100650.38;5058200;28;20099;-73
2023/09/26 07:46:59;;;;;;;3.88;1.65;;;;;;;16.95;100.00;100645.91;5031200;28;20048;-73
2023/09/26 07:49:43;;;;;;;3.25;2.10;;;;;;;17.11;100.00;100643.38;5042916;28;20138;-73
2023/09/26 07:52:27;;;;;;;4.22;1.88;;;;;;;17.28;100.00;100650.91;5042601;28;20043;-73
2023/09/26 07:55:12;;;;;;;5.68;1.80;;;;;;;17.44;100.00;100635.16;5030997;28;20040;-73
2023/09/26 07:57:56;;;;;;;3.60;2.17;;;;;;;17.63;100.00;100637.53;5040096;28;20092;-73
2023/09/26 08:00:40;;;;;;;6.28;2.42;;;;;;;17.80;100.00;100631.00;5025637;28;20085;-73
2023/09/26 08:03:25;;;;;;;4.35;2.03;;;;;;;17.98;100.00;100634.56;5026121;28;20124;-73
2023/09/26 08:06:11;;;;;;;5.03;1.60;;;;;;;18.16;100.00;100632.44;5055363;28;20040;-73
2023/09/26 08:08:57;;;;;;;5.85;2.45;;;;;;;18.35;100.00;100646.81;5028684;28;20520;-73
2023/09/26 08:11:41;;;;;;;5.68;2.28;;;;;;;18.49;100.00;100644.56;5030998;28;20052;-73
2023/09/26 08:14:25;;;;;;;4.78;2.10;;;;;;;18.66;100.00;100637.94;5042360;28;20044;-73
2023/09/26 08:17:09;;;;;;;5.47;2.00;;;;;;;18.83;100.00;100645.41;5028267;28;20060;-73
2023/09/26 08:19:53;;;;;;;2.92;1.65;;;;;;;19.03;100.00;100651.34;5028086;28;20036;-73
2023/09/26 08:22:38;;;;;;;3.22;1.90;;;;;;;19.19;100.00;100650.34;5057448;28;20039;-73
2023/09/26 08:25:23;;;;;;;4.53;1.70;;;;;;;19.38;100.00;100651.75;5028191;28;20043;-73
2023/09/26 08:28:07;;;;;;;4.22;1.45;;;;;;;19.56;100.00;100666.47;5017846;28;20052;-73
2023/09/26 08:30:56;;;;;;;4.28;1.95;;;;;;;19.73;100.00;100655.00;5042193;28;20100;-73
2023/09/26 08:33:40;;;;;;;5.20;2.10;;;;;;;19.93;100.00;100658.03;5041998;28;20044;-73
2023/09/26 08:36:24;;;;;;;4.93;1.92;;;;;;;20.10;100.00;100649.31;5041358;28;20520;-73
2023/09/26 08:39:08;;;;;;;4.22;2.00;;;;;;;20.26;100.00;100658.66;5030362;28;20454;-73
2023/09/26 08:41:52;;;;;;;5.97;1.98;;;;;;;20.41;100.00;100657.09;5041835;28;20040;-73
2023/09/26 08:44:37;;;;;;;3.83;2.17;;;;;;;20.60;100.00;100659.28;5036269;28;20576;-73
2023/09/26 08:47:23;;;;;;;5.85;2.08;;;;;;;20.76;100.00;100656.53;5040347;28;20044;-73
2023/09/26 08:50:07;;;;;;;6.60;2.30;;;;;;;20.92;100.00;100659.38;5028124;28;20036;-73
2023/09/26 08:52:52;;;;;;;4.40;2.00;;;;;;;21.08;100.00;100665.06;5023158;28;20036;-73
2023/09/26 08:55:37;;;;;;;4.90;2.08;;;;;;;21.25;100.00;100663.91;5030100;28;20557;-73
2023/09/26 08:58:21;;;;;;;6.35;2.50;;;;;;;21.38;100.00;100660.66;5000942;28;20043;-73
2023/09/26 09:01:06;;;;;;;4.18;2.00;;;;;;;21.52;100.00;100660.22;5024282;28;20572;-73
2023/09/26 09:03:50;;;;;;;6.72;2.25;;;;;;;21.67;100.00;100666.22;5054222;28;20043;-73
2023/09/26 09:06:34;;;;;;;5.28;2.00;;;;;;;21.79;100.00;100669.78;5029599;28;20040;-73
2023/09/26 09:09:18;;;;;;;4.28;2.00;;;;;;;21.94;100.00;100661.63;5055625;28;20064;-73
2023/09/26 09:12:02;;;;;;;4.53;1.90;;;;;;;22.11;100.00;100657.59;5041364;28;20128;-73
2023/09/26 09:14:47;;;;;;;7.32;2.20;;;;;;;22.25;100.00;100664.41;5015581;28;20163;-73
2023/09/26 09:17:39;;;;;;;5.45;1.98;;;;;;;22.44;100.00;100659.97;5055544;28;20125;-73
2023/09/26 09:20:32;;;;;;;5.63;2.03;;;;;;;22.61;100.00;100659.53;5041308;28;20043;-73
2023/09/26 09:23:16;;;;;;;;;;;;;;;22.81;100.00;100654.66;5055827;28;20388;-73
2023/09/26 09:26:10;;;;;;;5.88;2.13;;;;;;;22.95;100.00;100652.13;5027708;28;19916;-73
2023/09/26 09:28:59;;;;;;;4.50;2.00;;;;;;;23.10;100.00;100646.78;5053627;28;20522;-74
2023/09/26 09:31:43;;;;;;;6.03;2.17;;;;;;;23.22;100.00;100655.09;5040409;28;20043;-73
2023/09/26 09:34:27;;;;;;;5.95;2.50;;;;;;;23.34;100.00;100656.91;5040527;28;20102;-73
2023/09/26 09:37:12;;;;;;;7.75;1.95;;;;;;;23.44;100.00;100656.28;5055627;28;20107;-73
2023/09/26 09:39:56;;;;;;;6.10;2.03;;;;;;;23.52;100.00;100657.25;5041410;28;20040;-73
2023/09/26 09:42:40;;;;;;;7.40;2.35;;;;;;;23.60;100.00;100659.00;5026901;28;20044;-73
2023/09/26 09:45:24;;;;;;;4.88;1.65;;;;;;;23.70;100.00;100668.88;5042572;28;20102;-73
2023/09/26 09:48:09;;;;;;;4.15;1.90;;;;;;;23.80;100.00;100665.44;5043715;28;20059;-74
2023/09/26 09:50:54;;;;;;;3.88;1.73;;;;;;;23.91;100.00;100668.44;5045075;28;20098;-74
2023/09/26 09:53:38;;;;;;;8.57;2.50;;;;;;;23.98;100.00;100665.69;5019114;28;20052;-73
2023/09/26 09:56:24;;;;;;;5.00;1.73;;;;;;;24.09;100.00;100666.66;5031034;28;20071;-74
2023/09/26 09:59:12;;;;;;;4.38;1.50;;;;;;;24.20;100.00;100656.28;5037968;28;20048;-73
2023/09/26 10:01:56;;;;;;;4.20;1.50;;;;;;;24.34;100.00;100657.69;5025394;28;20099;-73
2023/09/26 10:04:40;;;;;;;5.13;1.70;;;;;;;24.46;100.00;100651.81;5045693;28;20064;-73
2023/09/26 10:07:24;;;;;;;5.95;1.88;;;;;;;24.61;100.00;100644.31;5035911;28;20043;-73
2023/09/26 10:10:09;;;;;;;5.85;1.80;;;;;;;24.72;100.00;100654.59;5044512;28;20055;-73
2023/09/26 10:12:54;;;;;;;3.88;1.55;;;;;;;24.86;100.00;100650.28;5043591;28;20040;-73
2023/09/26 10:16:17;;;;;;;7.70;2.15;;;;;;;25.00;100.00;100647.59;5031027;28;20040;-73
2023/09/26 10:19:03;;;;;;;4.65;1.55;;;;;;;25.10;100.00;100649.75;5059666;28;20059;-73
2023/09/26 10:21:47;;;;;;;2.90;1.30;;;;;;;25.18;100.00;100656.31;5030930;28;20083;-73
2023/09/26 10:24:33;;;;;;;3.42;1.35;;;;;;;25.29;100.00;100657.25;5005263;28;20075;-72
2023/09/26 10:27:38;;;;;;;3.83;1.50;;;;;;;25.38;100.00;100654.09;5042408;28;20107;-73
2023/09/26 10:30:24;;;;;;;4.90;1.48;;;;;;;25.45;100.00;100659.03;5024671;28;20060;-73
2023/09/26 10:33:09;;;;;;;3.58;1.27;;;;;;;25.49;100.00;100663.56;5030472;28;20451;-73
2023/09/26 10:35:53;;;;;;;3.90;1.75;;;;;;;25.52;100.00;100671.28;5035660;28;20041;-73
2023/09/26 10:38:37;;;;;;;4.78;1.50;;;;;;;25.56;100.00;100666.44;5028633;28;20059;-73
2023/09/26 10:41:21;;;;;;;6.03;1.60;;;;;;;25.60;100.00;100667.31;5057531;28;20043;-73
2023/09/26 10:44:05;;;;;;;3.03;1.65;;;;;;;25.66;100.00;100661.22;5043678;28;20051;-73
2023/09/26 10:46:49;;;;;;;5.43;1.45;;;;;;;25.67;100.00;100649.47;5043203;28;20052;-73
2023/09/26 10:49:33;;;;;;;3.47;1.50;;;;;;;25.71;100.00;100652.34;5057816;28;20063;-73
2023/09/26 10:52:17;;;;;;;4.35;1.73;;;;;;;25.81;100.00;100648.78;5035985;28;20052;-72
2023/09/26 10:55:03;;;;;;;4.75;1.50;;;;;;;25.88;100.00;100654.53;5049845;28;20048;-73
2023/09/26 10:57:49;;;;;;;5.45;1.50;;;;;;;25.96;100.00;100650.53;5030111;28;20088;-73
2023/09/26 11:00:33;;;;;;;4.05;1.73;;;;;;;26.06;100.00;100648.97;5030098;28;20075;-73
2023/09/26 11:03:17;;;;;;;4.00;1.50;;;;;;;26.16;100.00;100639.69;5032578;28;20091;-74
2023/09/26 11:06:01;;;;;;;2.90;1.20;;;;;;;26.26;100.00;100644.63;5029768;28;20107;-73
2023/09/26 11:08:45;;;;;;;5.90;1.33;;;;;;;26.38;100.00;100643.44;5029392;28;20130;-73
2023/09/26 11:11:29;;;;;;;5.60;1.35;;;;;;;26.46;100.00;100645.13;5003431;28;20519;-73
2023/09/26 11:14:13;;;;;;;3.28;1.27;;;;;;;26.54;100.00;100656.59;5011952;28;21213;-73
2023/09/26 11:16:57;;;;;;;3.78;1.33;;;;;;;26.59;100.00;100642.78;5057745;28;20392;-73
2023/09/26 11:19:42;;;;;;;3.65;1.48;;;;;;;26.66;100.00;100642.81;5030703;28;20107;-73
2023/09/26 11:22:26;;;;;;;2.92;1.33;;;;;;;26.76;100.00;100649.75;5042589;28;20043;-73
2023/09/26 11:25:10;;;;;;;3.42;1.23;;;;;;;26.80;100.00;100642.06;5028406;28;20124;-73
2023/09/26 11:27:54;;;;;;;3.35;1.00;;;;;;;26.91;100.00;100642.06;5045410;28;20171;-73
2023/09/26 11:30:39;;;;;;;4.68;1.65;;;;;;;27.02;100.00;100650.63;5028424;28;20098;-73
2023/09/26 11:33:23;;;;;;;3.60;1.40;;;;;;;27.10;100.00;100660.84;5040273;28;20098;-73
2023/09/26 11:36:09;;;;;;;7.93;1.40;;;;;;;27.18;100.00;100659.66;5042159;28;20048;-73
2023/09/26 11:38:53;;;;;;;3.53;1.23;;;;;;;27.24;100.00;100666.59;5042313;28;20036;-73
2023/09/26 11:41:37;;;;;;;3.00;1.23;;;;;;;27.28;100.00;100667.44;5042013;28;20467;-73
2023/09/26 11:44:22;;;;;;;4.28;1.35;;;;;;;27.34;100.00;100659.28;5042695;28;20044;-73
2023/09/26 11:47:08;;;;;;;4.05;1.05;;;;;;;27.33;100.00;100663.34;5015919;28;20036;-73
2023/09/26 11:49:52;;;;;;;4.40;1.20;;;;;;;27.36;100.00;100656.88;5027751;28;20135;-73
2023/09/26 11:52:36;;;;;;;4.45;1.58;;;;;;;27.38;100.00;100651.56;5035909;28;20106;-73
2023/09/26 11:55:21;;;;;;;3.95;1.40;;;;;;;27.43;100.00;100651.16;5018004;28;20052;-73
2023/09/26 11:58:05;;;;;;;4.15;1.10;;;;;;;27.49;100.00;100648.72;5042032;28;20048;-73
2023/09/26 12:00:49;;;;;;;3.05;1.15;;;;;;;27.54;100.00;100660.53;5041906;28;20083;-73
2023/09/26 12:03:33;;;;;;;3.65;1.42;;;;;;;27.57;100.00;100662.56;5027877;28;20443;-73
2023/09/26 12:06:17;;;;;;;3.53;0.98;;;;;;;27.56;100.00;100660.94;5023423;28;20125;-73
2023/09/26 12:09:03;;;;;;;2.92;1.13;;;;;;;27.60;100.00;100663.78;5041540;28;20553;-73
2023/09/26 12:11:48;;;;;;;3.70;1.30;;;;;;;27.64;100.00;100656.06;4990957;28;1152226;-73
2023/09/26 12:14:33;;;;;;;5.13;1.40;;;;;;;27.71;100.00;100660.94;5028198;28;20523;-73
2023/09/26 12:17:17;;;;;;;5.38;1.10;;;;;;;27.79;100.00;100662.56;5042451;28;20032;-73
2023/09/26 12:20:01;;;;;;;4.80;1.40;;;;;;;27.85;100.00;100650.34;5041937;28;20123;-73
2023/09/26 12:22:45;;;;;;;3.90;1.20;;;;;;;27.92;100.00;100660.16;5026134;28;20111;-75
2023/09/26 12:25:30;;;;;;;4.53;1.30;;;;;;;27.94;100.00;100651.97;5042146;28;20120;-71
2023/09/26 12:28:15;;;;;;;3.47;1.27;;;;;;;27.97;100.00;100652.00;5028374;28;20547;-72
2023/09/26 12:31:00;;;;;;;3.88;1.02;;;;;;;28.03;100.00;100658.09;5029902;28;20040;-72
2023/09/26 12:33:44;;;;;;;5.15;1.40;;;;;;;28.04;100.00;100651.16;5039621;28;20044;-72
2023/09/26 12:36:29;;;;;;;5.05;1.35;;;;;;;28.05;100.00;100653.63;5015212;28;20067;-72